Time;durP1;ratioP1;P1;durP2;ratioP2;P2;SDS_P1;SDS_P2;PMS_P1;PMS_P2;Temp;Humidity;BMP_temperature;BMP_pressure;BME280_temperature;BME280_humidity;BME280_pressure;Samples;Min_cycle;Max_cycle;Signal;HPM_P1;HPM_P2
2022/10/31 00:00:47;;;;;;;10.20;1.42;;;;;;;12.13;80.38;100087.38;4981704;28;20096;-53
2022/10/31 00:03:16;;;;;;;10.25;1.13;;;;;;;12.12;80.21;100083.06;4983766;28;20059;-51
2022/10/31 00:05:46;;;;;;;15.77;2.22;;;;;;;12.11;80.33;100091.72;4982988;28;20069;-53
2022/10/31 00:08:13;;;;;;;11.82;1.48;;;;;;;12.09;80.38;100076.13;4984323;28;20076;-54
2022/10/31 00:10:41;;;;;;;10.00;1.55;;;;;;;12.10;81.22;100082.19;4983418;28;20126;-53
2022/10/31 00:13:09;;;;;;;9.77;1.70;;;;;;;12.11;80.49;100078.72;4981675;28;21301;-54
2022/10/31 00:15:37;;;;;;;16.52;2.20;;;;;;;12.11;81.50;100081.31;4983206;28;20120;-53
2022/10/31 00:18:05;;;;;;;12.15;2.08;;;;;;;12.12;81.62;100072.69;4982991;28;20097;-53
2022/10/31 00:20:32;;;;;;;14.90;1.50;;;;;;;12.12;81.64;100088.25;4966579;28;20141;-47
2022/10/31 00:23:00;;;;;;;10.68;1.55;;;;;;;12.05;82.54;100083.06;4978693;28;20073;-53
2022/10/31 00:25:29;;;;;;;9.55;1.55;;;;;;;12.10;81.38;100084.81;4985962;28;20865;-52
2022/10/31 00:27:55;;;;;;;13.65;1.58;;;;;;;12.07;82.50;100086.56;4981601;28;20046;-53
2022/10/31 00:30:22;;;;;;;12.82;1.73;;;;;;;12.12;82.57;100083.91;4982535;28;20038;-52
2022/10/31 00:32:49;;;;;;;14.50;1.80;;;;;;;12.16;81.86;100088.19;4984311;28;20137;-54
2022/10/31 00:35:15;;;;;;;12.10;2.40;;;;;;;12.12;82.58;100075.28;4978138;28;20101;-50
2022/10/31 00:37:42;;;;;;;9.15;2.33;;;;;;;12.19;81.43;100084.72;4982157;28;20052;-51
2022/10/31 00:40:10;;;;;;;5.05;1.23;;;;;;;12.20;81.81;100078.66;4981232;28;20766;-53
2022/10/31 00:42:36;;;;;;;12.77;1.65;;;;;;;12.19;81.08;100087.31;4975881;28;20077;-50
2022/10/31 00:45:03;;;;;;;18.40;1.70;;;;;;;12.20;81.82;100089.03;4980447;28;20066;-50
2022/10/31 00:47:29;;;;;;;11.55;1.63;;;;;;;12.21;81.94;100082.97;4975859;28;20126;-56
2022/10/31 00:49:56;;;;;;;16.38;1.60;;;;;;;12.25;81.16;100089.84;4983820;28;20962;-55
2022/10/31 00:52:23;;;;;;;10.02;1.38;;;;;;;12.25;81.99;100084.66;4980316;28;20046;-53
2022/10/31 00:54:49;;;;;;;13.45;1.75;;;;;;;12.26;80.89;100085.53;4979464;28;20562;-54
2022/10/31 00:57:16;;;;;;;9.98;2.00;;;;;;;12.26;81.22;100083.78;4976746;28;20652;-54
2022/10/31 00:59:42;;;;;;;10.55;1.58;;;;;;;12.27;82.12;100082.94;4975713;28;20276;-51
2022/10/31 01:02:09;;;;;;;13.15;1.83;;;;;;;12.28;81.60;100075.97;4976390;28;20044;-51
2022/10/31 01:04:36;;;;;;;9.30;1.85;;;;;;;12.28;80.72;100083.78;4972695;28;20062;-53
2022/10/31 01:07:02;;;;;;;14.57;2.47;;;;;;;12.29;81.20;100082.91;4977321;28;20109;-52
2022/10/31 01:09:29;;;;;;;16.92;2.20;;;;;;;12.28;81.63;100079.44;4975500;28;20619;-51
2022/10/31 01:11:55;;;;;;;11.30;1.50;;;;;;;12.31;80.64;100084.63;4977016;28;20046;-52
2022/10/31 01:14:22;;;;;;;15.63;1.90;;;;;;;12.33;80.67;100093.25;4977166;28;20145;-52
2022/10/31 01:16:49;;;;;;;12.27;1.45;;;;;;;12.28;80.80;100092.44;4981921;28;20070;-56
2022/10/31 01:19:16;;;;;;;14.15;1.88;;;;;;;12.32;81.73;100091.53;4983499;28;20038;-51
2022/10/31 01:21:44;;;;;;;16.65;1.75;;;;;;;12.34;81.13;100084.56;4979949;28;20050;-50
2022/10/31 01:24:13;;;;;;;13.32;1.25;;;;;;;12.36;80.78;100083.72;4982147;28;20070;-54
2022/10/31 01:26:41;;;;;;;9.90;2.00;;;;;;;12.36;80.33;100081.97;4982418;28;20069;-54
2022/10/31 01:29:09;;;;;;;10.50;1.33;;;;;;;12.37;81.00;100086.31;4980497;28;20074;-52
2022/10/31 01:31:39;;;;;;;11.05;1.35;;;;;;;12.38;80.84;100089.75;4982621;28;20112;-48
2022/10/31 01:34:11;;;;;;;11.07;1.35;;;;;;;12.36;81.00;100081.13;4984012;28;20134;-51
2022/10/31 01:36:40;;;;;;;9.77;1.52;;;;;;;12.38;81.37;100079.34;4980174;28;20078;-50
2022/10/31 01:39:12;;;;;;;11.18;1.67;;;;;;;12.38;81.89;100089.75;4981118;28;20082;-52
2022/10/31 01:41:43;;;;;;;12.65;1.48;;;;;;;12.40;81.93;100088.84;4976882;28;20042;-50
2022/10/31 01:49:43;;;;;;;13.02;1.77;;;;;;;12.36;81.74;100087.16;5031784;28;20451;-51
2022/10/31 01:52:16;;;;;;;10.98;1.17;;;;;;;12.43;80.98;100081.03;4981060;28;20054;-57
2022/10/31 01:54:48;;;;;;;15.15;1.77;;;;;;;12.40;81.04;100068.06;4975647;28;20055;-50
2022/10/31 01:57:17;;;;;;;13.18;1.20;;;;;;;12.44;80.99;100076.69;4990855;28;20129;-54
2022/10/31 01:59:49;;;;;;;10.00;1.13;;;;;;;12.45;81.05;100078.41;4980821;28;20120;-51
2022/10/31 02:02:18;;;;;;;9.65;1.25;;;;;;;12.46;81.66;100061.94;4973743;28;20137;-51
2022/10/31 02:04:47;;;;;;;7.63;1.00;;;;;;;12.47;82.00;100079.28;4975684;28;20053;-51
2022/10/31 02:07:20;;;;;;;12.90;1.45;;;;;;;12.47;81.07;100061.09;4977998;28;20133;-52
2022/10/31 02:09:49;;;;;;;12.43;1.38;;;;;;;12.49;81.69;100055.88;4979193;28;20098;-53
2022/10/31 02:12:17;;;;;;;5.07;0.73;;;;;;;12.50;81.46;100058.44;4977034;28;20070;-54
2022/10/31 02:14:44;;;;;;;10.40;1.73;;;;;;;12.52;80.94;100059.28;4982861;28;20047;-50
2022/10/31 02:17:10;;;;;;;13.32;1.25;;;;;;;12.48;81.90;100060.22;4981433;28;20122;-56
2022/10/31 02:28:16;;;;;;;7.72;1.65;;;;;;;12.47;80.24;100059.34;5080269;27;20400;-51
2022/10/31 02:36:17;;;;;;;8.45;1.35;;;;;;;12.62;81.07;100072.19;5079194;27;20412;-54
2022/10/31 02:47:01;;;;;;;11.98;2.35;;;;;;;12.47;81.11;100048.09;5114426;27;20456;-56
2022/10/31 02:49:36;;;;;;;12.10;2.47;;;;;;;12.48;80.95;100044.63;5073204;28;20045;-57
2022/10/31 02:52:13;;;;;;;12.57;2.40;;;;;;;12.46;81.11;100051.56;5071212;28;20123;-54
2022/10/31 02:54:40;;;;;;;15.23;2.97;;;;;;;12.41;81.15;100042.97;5068269;28;20119;-55
2022/10/31 02:57:08;;;;;;;10.15;2.63;;;;;;;12.40;80.76;100041.25;5069538;28;20078;-55
2022/10/31 02:59:39;;;;;;;11.52;1.98;;;;;;;12.37;81.21;100036.94;5076060;28;20131;-53
2022/10/31 03:08:06;;;;;;;14.63;1.48;;;;;;;12.27;81.49;100046.56;5069025;27;20406;-51
2022/10/31 03:19:10;;;;;;;11.88;1.45;;;;;;;12.19;81.64;100053.56;5063671;27;21101;-56
2022/10/31 03:21:44;;;;;;;8.85;0.95;;;;;;;12.23;81.37;100060.47;5016778;28;20136;-57
2022/10/31 03:24:12;;;;;;;7.40;1.75;;;;;;;12.26;80.46;100055.22;5017503;28;20059;-56
2022/10/31 03:26:46;;;;;;;6.43;1.73;;;;;;;12.19;81.75;100048.34;5014634;28;20581;-53
2022/10/31 03:29:18;;;;;;;10.85;1.77;;;;;;;12.10;81.01;100051.06;5029301;28;20599;-53
2022/10/31 03:31:52;;;;;;;5.55;0.95;;;;;;;12.19;80.45;100050.94;5014958;28;20058;-52
2022/10/31 03:34:20;;;;;;;11.57;1.75;;;;;;;12.17;81.25;100050.13;5019838;28;20073;-51
2022/10/31 03:36:51;;;;;;;9.55;1.48;;;;;;;12.17;81.10;100050.13;5016481;28;20050;-52
2022/10/31 03:39:20;;;;;;;10.73;1.80;;;;;;;12.13;80.59;100048.44;5010941;28;20145;-54
2022/10/31 03:41:54;;;;;;;11.25;1.13;;;;;;;12.12;81.52;100052.75;5015329;28;20128;-56
2022/10/31 03:44:23;;;;;;;7.90;1.00;;;;;;;12.05;81.37;100051.91;5010447;28;20144;-51
2022/10/31 03:46:50;;;;;;;11.52;1.27;;;;;;;12.04;81.64;100049.34;5021344;28;20124;-54
2022/10/31 03:49:17;;;;;;;10.50;1.55;;;;;;;12.03;80.46;100043.28;5037224;28;20124;-53
2022/10/31 03:59:55;;;;;;;9.05;2.17;;;;;;;11.96;81.03;100047.66;5068073;27;20402;-50
2022/10/31 04:02:27;;;;;;;7.30;2.03;;;;;;;11.94;81.31;100046.84;5027978;28;20508;-53
2022/10/31 04:04:54;;;;;;;15.15;2.25;;;;;;;11.93;81.54;100044.25;5039373;28;20075;-56
2022/10/31 04:07:23;;;;;;;6.30;1.80;;;;;;;11.92;82.05;100047.72;5039500;28;20627;-51
2022/10/31 04:09:52;;;;;;;12.82;2.03;;;;;;;11.91;80.94;100053.75;5036755;28;20073;-48
2022/10/31 04:12:20;;;;;;;14.25;2.35;;;;;;;11.90;80.51;100052.06;5051685;28;20041;-51
2022/10/31 04:14:50;;;;;;;8.48;1.88;;;;;;;11.83;81.20;100049.50;5038194;28;20136;-56
2022/10/31 04:17:23;;;;;;;17.75;2.08;;;;;;;11.81;81.33;100042.59;5040003;28;20045;-51
2022/10/31 04:19:49;;;;;;;13.68;4.32;;;;;;;11.83;81.26;100052.09;5057091;28;20122;-53
2022/10/31 04:22:16;;;;;;;7.88;1.95;;;;;;;11.81;81.05;100053.84;5043894;28;20191;-52
2022/10/31 04:24:42;;;;;;;14.60;2.00;;;;;;;11.83;82.16;100065.06;5042100;28;20059;-51
2022/10/31 04:27:09;;;;;;;14.32;2.92;;;;;;;11.80;80.99;100054.72;5041301;28;20053;-49
2022/10/31 04:29:36;;;;;;;11.15;1.98;;;;;;;11.78;81.05;100053.88;5054942;28;21247;-56
2022/10/31 04:32:02;;;;;;;12.27;1.58;;;;;;;11.77;80.79;100035.72;5039943;28;20476;-56
2022/10/31 04:34:29;;;;;;;9.45;2.35;;;;;;;11.77;81.12;100041.78;5040160;28;20073;-53
2022/10/31 04:36:55;;;;;;;6.75;1.95;;;;;;;11.70;81.94;100042.69;5038330;28;20144;-54
2022/10/31 04:39:22;;;;;;;9.02;2.35;;;;;;;11.68;80.67;100041.81;5041239;28;20080;-51
2022/10/31 04:41:52;;;;;;;7.95;2.13;;;;;;;11.65;82.34;100041.88;5041538;28;20049;-52
2022/10/31 04:44:19;;;;;;;12.55;2.17;;;;;;;11.64;80.99;100045.31;5043252;28;20619;-51
2022/10/31 04:46:45;;;;;;;3.47;1.60;;;;;;;11.61;80.81;100047.94;5039184;28;20049;-54
2022/10/31 04:49:12;;;;;;;5.93;1.65;;;;;;;11.62;82.56;100044.50;5038599;28;20040;-55
2022/10/31 04:51:39;;;;;;;7.75;1.58;;;;;;;11.55;82.40;100028.94;5034275;28;20049;-53
2022/10/31 04:54:05;;;;;;;10.52;2.20;;;;;;;11.55;81.79;100026.34;5033988;28;20047;-49
2022/10/31 04:56:32;;;;;;;6.40;2.50;;;;;;;11.53;81.80;100033.31;5038773;28;20485;-55
2022/10/31 04:58:59;;;;;;;10.07;2.33;;;;;;;11.41;82.57;100025.59;5030634;28;20052;-53
2022/10/31 05:01:26;;;;;;;14.98;1.38;;;;;;;11.48;81.68;100019.50;5032189;28;20397;-54
2022/10/31 05:03:52;;;;;;;8.00;2.65;;;;;;;11.43;81.68;100013.47;5029986;28;20053;-52
2022/10/31 05:06:19;;;;;;;12.25;2.03;;;;;;;11.43;82.53;100016.06;5031543;28;20079;-53
2022/10/31 05:08:45;;;;;;;6.68;1.83;;;;;;;11.44;82.78;100012.59;5031639;28;20128;-56
2022/10/31 05:11:12;;;;;;;8.02;2.70;;;;;;;11.43;81.44;100010.88;5017278;28;20057;-52
2022/10/31 05:13:39;;;;;;;12.75;2.28;;;;;;;11.45;82.83;100009.13;5014933;28;20703;-54
2022/10/31 05:16:06;;;;;;;7.25;1.90;;;;;;;11.42;82.82;100009.19;5021854;28;21027;-50
2022/10/31 05:18:32;;;;;;;9.88;2.42;;;;;;;11.41;82.04;100013.50;5023060;28;20120;-50
2022/10/31 05:20:59;;;;;;;4.95;1.88;;;;;;;11.40;81.54;100014.38;5023133;28;20958;-50
2022/10/31 05:23:25;;;;;;;8.70;1.55;;;;;;;11.41;81.89;100012.63;5022915;28;20157;-52
2022/10/31 05:25:52;;;;;;;14.55;2.33;;;;;;;11.40;81.58;100005.72;5022801;28;20121;-49
2022/10/31 05:28:19;;;;;;;8.95;1.55;;;;;;;11.39;81.00;100009.19;5023454;28;20069;-53
2022/10/31 05:30:45;;;;;;;12.68;2.22;;;;;;;11.35;81.81;100012.69;5024243;28;20087;-51
2022/10/31 05:33:12;;;;;;;16.63;2.70;;;;;;;11.39;82.15;100009.19;5019169;28;20049;-52
2022/10/31 05:35:38;;;;;;;6.50;1.73;;;;;;;11.38;82.46;100013.50;5021646;28;20084;-53
2022/10/31 05:38:05;;;;;;;7.90;1.40;;;;;;;11.35;81.31;100003.16;5020181;28;20671;-56
2022/10/31 05:40:31;;;;;;;13.38;2.28;;;;;;;11.30;81.54;100005.78;5022865;28;20055;-54
2022/10/31 05:42:58;;;;;;;9.50;2.20;;;;;;;11.34;82.66;100010.97;5021892;28;20127;-51
2022/10/31 05:45:25;;;;;;;10.13;2.15;;;;;;;11.31;81.80;100002.31;5024983;28;20128;-53
2022/10/31 05:47:55;;;;;;;9.73;1.73;;;;;;;11.28;82.77;99999.75;5017480;28;20053;-56
2022/10/31 05:50:25;;;;;;;13.50;2.08;;;;;;;11.30;82.67;99989.38;5022822;28;20041;-52
2022/10/31 05:52:57;;;;;;;8.63;1.90;;;;;;;11.27;82.18;99989.38;5017931;28;20041;-46
2022/10/31 05:55:25;;;;;;;6.55;2.47;;;;;;;11.23;83.16;99991.13;5023884;28;20042;-51
2022/10/31 05:57:53;;;;;;;12.63;2.40;;;;;;;11.22;83.22;99981.66;5002501;28;20073;-52
2022/10/31 06:00:20;;;;;;;15.02;2.00;;;;;;;11.22;83.39;99981.66;5000182;28;20532;-54
2022/10/31 06:02:47;;;;;;;10.90;1.80;;;;;;;11.26;83.33;99979.88;5015265;28;20050;-53
2022/10/31 06:05:14;;;;;;;10.07;2.20;;;;;;;11.23;83.58;99988.56;4999257;28;20064;-50
2022/10/31 06:07:41;;;;;;;13.30;2.45;;;;;;;11.24;82.54;99985.06;5018090;28;20057;-50
2022/10/31 06:10:08;;;;;;;11.70;2.85;;;;;;;11.24;83.54;99990.25;5020904;28;20133;-52
2022/10/31 06:12:37;;;;;;;7.22;2.00;;;;;;;11.25;84.17;99976.41;5022935;28;20073;-53
2022/10/31 06:15:06;;;;;;;6.05;2.08;;;;;;;11.28;82.93;99983.34;5023865;28;20061;-53
2022/10/31 06:17:34;;;;;;;8.18;2.58;;;;;;;11.27;84.10;99974.69;5022765;28;20132;-53
2022/10/31 06:20:01;;;;;;;14.32;2.33;;;;;;;11.28;83.37;99975.56;5023048;28;20068;-49
2022/10/31 06:22:28;;;;;;;11.65;2.72;;;;;;;11.30;83.31;99972.09;5019703;28;20053;-51
2022/10/31 06:24:54;;;;;;;8.55;2.33;;;;;;;11.27;83.33;99968.63;5022856;28;20091;-55
2022/10/31 06:27:21;;;;;;;7.50;1.73;;;;;;;11.30;83.74;99969.50;5019354;28;20045;-51
2022/10/31 06:29:47;;;;;;;8.15;2.22;;;;;;;11.31;83.59;99975.53;5020773;28;20118;-52
2022/10/31 06:32:15;;;;;;;12.10;2.08;;;;;;;11.33;83.88;99968.59;5035446;28;20095;-54
2022/10/31 06:34:42;;;;;;;10.65;2.08;;;;;;;11.30;83.95;99969.50;5035098;28;20072;-47
2022/10/31 06:37:12;;;;;;;10.80;2.03;;;;;;;11.32;83.39;99967.72;5019793;28;20132;-50
2022/10/31 06:39:39;;;;;;;7.13;2.15;;;;;;;11.32;82.74;99977.25;5015507;28;20526;-48
2022/10/31 06:42:06;;;;;;;12.93;2.20;;;;;;;11.28;84.78;99971.22;5013714;28;20150;-54
2022/10/31 06:44:32;;;;;;;8.10;2.03;;;;;;;11.31;83.10;99976.38;5021922;28;20084;-50
2022/10/31 06:46:59;;;;;;;14.75;1.60;;;;;;;11.33;83.01;99978.97;5021483;28;20395;-51
2022/10/31 06:49:26;;;;;;;13.77;2.47;;;;;;;11.32;83.67;99983.28;5019259;28;20073;-53
2022/10/31 06:51:52;;;;;;;13.50;2.85;;;;;;;11.28;83.76;99980.75;5022479;28;20079;-47
2022/10/31 06:54:19;;;;;;;10.93;2.03;;;;;;;11.25;84.61;99971.22;5012397;28;20076;-51
2022/10/31 06:56:47;;;;;;;9.98;2.25;;;;;;;11.29;83.03;99978.13;5024843;28;20489;-52
2022/10/31 06:59:14;;;;;;;8.88;2.33;;;;;;;11.20;84.55;99970.41;5025218;28;20095;-46
2022/10/31 07:01:40;;;;;;;13.15;2.10;;;;;;;11.22;85.11;99968.69;5016108;28;20123;-49
2022/10/31 07:04:10;;;;;;;8.55;2.30;;;;;;;11.25;83.65;99971.22;5022296;28;20084;-50
2022/10/31 07:06:37;;;;;;;14.25;3.30;;;;;;;11.27;84.38;99974.69;5015876;28;20081;-52
2022/10/31 07:09:04;;;;;;;9.98;2.53;;;;;;;11.23;85.00;99962.63;5015439;28;20080;-51
2022/10/31 07:11:30;;;;;;;9.05;2.25;;;;;;;11.23;85.09;99967.81;5021020;28;20128;-53
2022/10/31 07:13:57;;;;;;;8.65;3.00;;;;;;;11.27;84.70;99973.81;5016932;28;20046;-53
2022/10/31 07:16:24;;;;;;;10.35;3.17;;;;;;;11.32;84.21;99972.91;5020558;28;20049;-50
2022/10/31 07:18:50;;;;;;;12.27;3.53;;;;;;;11.33;83.91;99963.41;5019561;28;20046;-49
2022/10/31 07:21:17;;;;;;;12.65;2.85;;;;;;;11.34;83.73;99964.28;5017676;28;20061;-50
2022/10/31 07:23:43;;;;;;;13.68;2.60;;;;;;;11.36;84.84;99962.53;5018931;28;20132;-52
2022/10/31 07:26:10;;;;;;;14.07;3.13;;;;;;;11.42;83.49;99954.72;5022156;28;20091;-52
2022/10/31 07:28:37;;;;;;;13.35;3.53;;;;;;;11.46;84.14;99958.13;5022600;28;20058;-61
2022/10/31 07:31:03;;;;;;;8.95;3.67;;;;;;;11.48;84.50;99962.44;5021534;28;20056;-53
2022/10/31 07:33:30;;;;;;;5.78;2.55;;;;;;;11.50;84.07;99960.69;5022409;28;20131;-53
2022/10/31 07:35:56;;;;;;;12.90;3.45;;;;;;;11.62;84.35;99956.28;5022543;28;20129;-51
2022/10/31 07:38:23;;;;;;;11.55;1.83;;;;;;;11.64;83.35;99963.19;5020400;28;20391;-52
2022/10/31 07:40:52;;;;;;;14.65;3.85;;;;;;;11.68;83.83;99964.00;5021955;28;20051;-53
2022/10/31 07:43:19;;;;;;;21.52;2.63;;;;;;;11.74;84.55;99971.75;5018921;28;20570;-53
2022/10/31 07:45:51;;;;;;;11.32;2.70;;;;;;;11.78;84.63;99975.16;5017524;28;20155;-52
2022/10/31 07:48:19;;;;;;;10.80;3.65;;;;;;;11.80;83.77;99974.28;5018931;28;20046;-50
2022/10/31 07:50:46;;;;;;;10.25;3.20;;;;;;;11.81;84.27;99976.00;5015437;28;20073;-51
2022/10/31 07:53:14;;;;;;;15.30;3.42;;;;;;;11.91;83.79;99978.50;5018089;28;20095;-50
2022/10/31 07:55:41;;;;;;;11.82;3.10;;;;;;;12.22;83.82;99980.81;5017003;28;20109;-53
2022/10/31 07:58:12;;;;;;;13.30;2.35;;;;;;;12.60;83.94;99976.94;5020637;28;20516;-49
2022/10/31 08:00:40;;;;;;;14.32;3.80;;;;;;;12.96;83.05;99980.81;5020352;28;20520;-50
2022/10/31 08:03:10;;;;;;;16.90;4.10;;;;;;;13.44;82.11;99979.25;5014334;28;20892;-50
2022/10/31 08:05:38;;;;;;;15.93;3.42;;;;;;;13.77;80.54;99971.81;5019485;28;20302;-53
2022/10/31 08:08:05;;;;;;;10.85;3.80;;;;;;;14.07;79.69;99979.97;5014623;28;20049;-51
2022/10/31 08:10:32;;;;;;;12.55;3.35;;;;;;;14.23;78.58;99974.47;5018569;28;20045;-53
2022/10/31 08:13:05;;;;;;;14.48;3.38;;;;;;;14.12;77.42;99970.31;5016512;28;20148;-53
2022/10/31 08:15:34;;;;;;;12.82;3.75;;;;;;;13.86;78.34;99976.88;5017054;28;20136;-48
2022/10/31 08:18:01;;;;;;;11.18;3.63;;;;;;;13.64;78.73;99975.50;5018762;28;20060;-50
2022/10/31 08:20:29;;;;;;;14.13;4.70;;;;;;;13.47;79.44;99974.00;5017648;28;20699;-51
2022/10/31 08:25:35;;;;;;;13.45;3.15;;;;;;;13.51;79.66;99983.50;5033695;28;20896;-54
2022/10/31 08:28:05;;;;;;;10.60;2.80;;;;;;;13.46;79.55;99985.28;5011675;28;20103;-51
2022/10/31 08:30:34;;;;;;;15.00;2.20;;;;;;;13.36;80.31;99982.84;5014513;28;20049;-56
2022/10/31 08:33:04;;;;;;;12.82;4.82;;;;;;;13.42;80.10;99981.00;5012384;28;20464;-48
2022/10/31 08:35:32;;;;;;;15.77;2.83;;;;;;;13.34;80.05;99975.94;5015438;28;20136;-54
2022/10/31 08:37:59;;;;;;;11.95;2.90;;;;;;;13.27;80.35;99972.56;5015575;28;20136;-54
2022/10/31 08:40:29;;;;;;;6.65;2.47;;;;;;;13.26;80.62;99972.56;5013739;28;20567;-50
2022/10/31 08:43:01;;;;;;;16.08;3.20;;;;;;;13.26;80.47;99981.25;5019459;28;20148;-49
2022/10/31 08:45:29;;;;;;;13.00;3.22;;;;;;;13.29;80.64;99975.13;5021274;28;20136;-53
2022/10/31 08:47:58;;;;;;;13.15;2.72;;;;;;;13.44;80.77;99968.84;5015326;28;20544;-53
2022/10/31 08:50:25;;;;;;;7.45;2.63;;;;;;;13.59;81.10;99967.78;5009730;28;20046;-49
2022/10/31 08:52:51;;;;;;;14.50;2.42;;;;;;;13.93;80.39;99955.91;5016691;28;20077;-52
2022/10/31 08:55:30;;;;;;;10.05;2.03;;;;;;;14.19;79.46;99967.59;5013812;28;20458;-53
2022/10/31 08:57:58;;;;;;;7.22;2.67;;;;;;;14.17;79.00;99966.75;5012064;28;20111;-50
2022/10/31 09:00:25;;;;;;;9.43;2.75;;;;;;;14.10;78.95;99972.09;5013412;28;20056;-51
2022/10/31 09:02:57;;;;;;;13.85;2.38;;;;;;;14.02;78.95;99966.19;5015994;28;20514;-51
2022/10/31 09:05:24;;;;;;;10.95;2.20;;;;;;;13.98;79.74;99974.91;5011057;28;20140;-50
2022/10/31 09:07:54;;;;;;;8.02;2.17;;;;;;;13.93;79.67;99971.53;5016827;28;20465;-51
2022/10/31 09:10:21;;;;;;;9.70;2.20;;;;;;;13.90;79.76;99976.78;5014873;28;20069;-57
2022/10/31 09:12:55;;;;;;;12.93;2.60;;;;;;;13.87;79.98;99983.78;5016083;28;20055;-54
2022/10/31 09:15:21;;;;;;;14.80;2.28;;;;;;;13.85;80.03;99977.72;5018870;28;20050;-49
2022/10/31 09:17:48;;;;;;;17.45;2.65;;;;;;;13.87;80.29;99975.97;5018348;28;20683;-54
2022/10/31 09:20:15;;;;;;;9.50;2.28;;;;;;;13.94;80.21;99962.81;5013373;28;20049;-51
2022/10/31 09:22:42;;;;;;;8.65;1.35;;;;;;;13.94;80.39;99965.44;5017461;28;20054;-51
2022/10/31 09:25:09;;;;;;;13.68;2.25;;;;;;;13.95;80.72;99961.97;5018220;28;20104;-52
2022/10/31 09:27:36;;;;;;;4.63;1.80;;;;;;;13.96;80.24;99961.06;5009329;28;20132;-53
2022/10/31 09:30:03;;;;;;;9.43;2.58;;;;;;;13.96;80.17;99948.91;5013683;28;20049;-50
2022/10/31 09:32:30;;;;;;;9.35;1.83;;;;;;;13.93;80.37;99955.91;5010949;28;20136;-47
2022/10/31 09:34:56;;;;;;;9.75;1.90;;;;;;;13.94;80.30;99948.06;5009092;28;20050;-53
2022/10/31 09:37:23;;;;;;;9.77;2.28;;;;;;;13.94;79.76;99947.19;5001008;28;20474;-52
2022/10/31 09:39:50;;;;;;;10.45;1.67;;;;;;;13.92;80.14;99951.59;4986038;28;20050;-53
2022/10/31 09:45:08;;;;;;;10.75;1.88;;;;;;;13.92;80.31;99954.19;5036480;27;20411;-54
2022/10/31 09:48:14;;;;;;;12.02;2.20;;;;;;;13.92;79.95;99944.66;5033592;28;20045;-54
2022/10/31 09:50:50;;;;;;;9.55;2.25;;;;;;;13.96;80.22;99937.63;5040876;28;20048;-53
2022/10/31 09:55:54;;;;;;;12.60;4.13;;;;;;;14.05;79.89;99934.84;5045254;27;20410;-53
2022/10/31 09:58:28;;;;;;;8.63;1.52;;;;;;;14.07;79.58;99933.09;5014704;28;20437;-54
2022/10/31 10:01:00;;;;;;;8.43;3.38;;;;;;;14.12;80.22;99930.41;5019154;28;20053;-56
2022/10/31 10:06:13;;;;;;;8.88;1.88;;;;;;;14.18;79.76;99929.41;5068759;27;20422;-52
2022/10/31 10:08:39;;;;;;;9.85;2.40;;;;;;;14.23;79.67;99931.06;5046143;28;20411;-55
2022/10/31 10:22:16;;;;;;;7.38;2.35;;;;;;;14.58;79.21;99932.94;5016532;27;20410;-53
2022/10/31 10:28:02;;;;;;;8.75;2.72;;;;;;;14.57;78.91;99934.69;5015177;27;20414;-55
2022/10/31 10:33:14;;;;;;;7.82;1.50;;;;;;;14.60;78.37;99928.56;5090562;27;20397;-53
2022/10/31 10:38:35;;;;;;;10.88;1.42;;;;;;;14.60;78.25;99921.63;5041148;27;20411;-53
2022/10/31 10:41:09;;;;;;;7.22;1.95;;;;;;;14.60;78.05;99921.63;5008284;28;20077;-50
2022/10/31 10:43:37;;;;;;;11.80;1.85;;;;;;;14.75;78.45;99909.13;4999547;28;21861;-53
2022/10/31 11:00:18;;;;;;;8.02;1.95;;;;;;;15.08;77.54;99901.44;5009638;27;20777;-54
2022/10/31 11:02:45;;;;;;;11.93;2.42;;;;;;;15.13;77.70;99894.34;4998632;28;20050;-53
2022/10/31 11:05:34;;;;;;;5.55;1.85;;;;;;;15.19;77.17;99900.34;4997925;28;20041;-49
2022/10/31 11:08:01;;;;;;;11.57;1.80;;;;;;;15.25;76.72;99884.53;4998064;28;20065;-52
2022/10/31 11:10:28;;;;;;;11.38;1.95;;;;;;;15.31;76.41;99883.50;4999434;28;20136;-48
2022/10/31 11:18:45;;;;;;;8.27;2.22;;;;;;;15.42;76.02;99856.25;5026502;27;20416;-55
2022/10/31 11:21:25;;;;;;;12.02;2.78;;;;;;;15.54;76.17;99857.66;5023413;28;20075;-54
2022/10/31 11:26:48;;;;;;;5.50;1.02;;;;;;;15.86;75.20;99847.25;5032538;28;20944;-54
2022/10/31 11:29:21;;;;;;;4.57;1.55;;;;;;;15.91;75.19;99842.75;5018896;28;20136;-53
2022/10/31 11:31:51;;;;;;;6.50;1.50;;;;;;;15.79;73.23;99837.88;5015230;28;20558;-55
2022/10/31 11:37:11;;;;;;;10.52;2.20;;;;;;;15.97;73.48;99827.84;5039415;28;20407;-50
2022/10/31 11:39:45;;;;;;;8.52;1.45;;;;;;;15.98;74.19;99819.97;5000644;28;20409;-54
2022/10/31 11:42:11;;;;;;;9.95;2.50;;;;;;;16.02;73.61;99833.78;4999034;28;20451;-53
2022/10/31 11:44:43;;;;;;;4.88;1.15;;;;;;;16.11;73.76;99819.63;4993940;28;20586;-52
2022/10/31 11:47:15;;;;;;;4.78;1.42;;;;;;;16.14;73.40;99817.75;4996517;28;20055;-53
2022/10/31 11:49:44;;;;;;;10.93;2.10;;;;;;;16.25;73.89;99811.38;4995012;28;20089;-52
2022/10/31 11:52:15;;;;;;;;;;;;;;;16.17;73.26;99807.22;4996886;28;20073;-55
2022/10/31 11:54:47;;;;;;;8.52;2.67;;;;;;;16.29;73.13;99799.91;4995808;28;20814;-54
2022/10/31 11:57:24;;;;;;;3.65;1.02;;;;;;;16.25;72.65;99795.69;4994629;28;20049;-49
2022/10/31 11:59:55;;;;;;;7.75;1.80;;;;;;;16.17;72.39;99788.06;4992875;28;20752;-57
2022/10/31 12:02:22;;;;;;;7.40;1.65;;;;;;;16.13;71.62;99782.09;4996229;28;20462;-53
2022/10/31 12:07:31;;;;;;;5.65;2.70;;;;;;;16.16;71.62;99787.22;5110025;27;20395;-56
2022/10/31 12:09:57;;;;;;;6.60;2.45;;;;;;;16.24;71.56;99775.69;5058228;28;20056;-53
2022/10/31 12:18:24;;;;;;;10.02;1.25;;;;;;;16.15;70.27;99754.16;5049743;28;20397;-51
2022/10/31 12:21:15;;;;;;;9.57;2.70;;;;;;;16.20;70.79;99756.63;5023820;28;20539;-48
2022/10/31 12:26:49;;;;;;;6.03;1.38;;;;;;;16.25;70.83;99744.25;5054450;27;20401;-53
2022/10/31 12:40:51;;;;;;;7.80;1.17;;;;;;;16.59;70.46;99724.06;5096554;27;20929;-53
2022/10/31 12:59:53;;;;;;;5.15;0.88;;;;;;;16.45;68.83;99678.28;5076318;27;20965;-50
2022/10/31 13:05:17;;;;;;;9.05;1.95;;;;;;;16.58;68.06;99670.03;5079884;27;20866;-54
2022/10/31 13:07:53;;;;;;;9.13;1.80;;;;;;;16.34;68.28;99669.13;5056377;28;20124;-49
2022/10/31 13:10:43;;;;;;;7.63;1.45;;;;;;;16.31;69.57;99659.59;5052646;28;20124;-50
2022/10/31 13:13:18;;;;;;;6.72;1.48;;;;;;;16.21;69.32;99655.59;5052593;28;20049;-47
2022/10/31 13:15:51;;;;;;;2.42;0.95;;;;;;;16.21;69.20;99647.75;5072385;28;20060;-49
2022/10/31 13:18:46;;;;;;;5.68;1.05;;;;;;;16.09;68.85;99638.53;5076019;28;20238;-49
2022/10/31 13:21:21;;;;;;;3.80;1.55;;;;;;;16.13;68.11;99633.19;5074055;28;20075;-51
2022/10/31 13:23:51;;;;;;;3.70;1.38;;;;;;;16.00;68.86;99629.25;5074779;28;20086;-51
2022/10/31 13:29:14;;;;;;;7.93;1.30;;;;;;;16.02;69.68;99617.00;5033335;28;20399;-50
2022/10/31 13:31:41;;;;;;;2.65;0.80;;;;;;;16.03;69.67;99608.25;5003297;28;20080;-52
2022/10/31 13:34:20;;;;;;;4.47;1.23;;;;;;;16.11;69.61;99608.00;5008447;28;20042;-48
2022/10/31 13:36:57;;;;;;;3.78;1.00;;;;;;;16.07;68.92;99599.41;5006612;28;20060;-50
2022/10/31 13:45:20;;;;;;;5.18;3.13;;;;;;;15.74;68.62;99586.53;5034502;27;20393;-49
2022/10/31 13:48:00;;;;;;;6.03;1.67;;;;;;;15.70;68.49;99577.91;5031064;28;20521;-53
2022/10/31 13:50:30;;;;;;;3.70;2.45;;;;;;;15.67;68.08;99580.63;5013764;28;20049;-48
2022/10/31 13:53:19;;;;;;;2.40;1.88;;;;;;;15.59;69.11;99578.25;5012202;28;20060;-50
2022/10/31 13:55:50;;;;;;;3.80;2.03;;;;;;;15.70;68.64;99574.47;5028223;28;20137;-49
2022/10/31 13:58:32;;;;;;;5.80;1.17;;;;;;;15.64;68.54;99576.34;5018819;28;20664;-55
2022/10/31 14:01:19;;;;;;;3.35;2.30;;;;;;;15.65;68.94;99572.84;5016314;28;20054;-49
2022/10/31 14:03:58;;;;;;;7.28;2.10;;;;;;;15.63;68.47;99561.59;5017289;28;20046;-51
2022/10/31 14:07:05;;;;;;;6.78;3.13;;;;;;;15.65;68.92;99551.97;5016034;28;20049;-56
2022/10/31 14:20:42;;;;;;;2.25;0.95;;;;;;;15.99;68.93;99523.94;5041995;27;20401;-53
2022/10/31 14:25:47;;;;;;;6.07;1.33;;;;;;;15.93;68.08;99514.50;5044949;28;20398;-49
2022/10/31 14:28:21;;;;;;;2.38;0.80;;;;;;;15.98;68.09;99508.31;4990874;28;20283;-53